Time;durP1;ratioP1;P1;durP2;ratioP2;P2;SDS_P1;SDS_P2;PMS_P1;PMS_P2;Temp;Humidity;BMP_temperature;BMP_pressure;BME280_temperature;BME280_humidity;BME280_pressure;Samples;Min_cycle;Max_cycle;Signal;HPM_P1;HPM_P2
2023/06/18 00:00:39;;;;;;;1999.90;999.90;;;17.00;99.90;;;;;;5135786;27;20035;-76
2023/06/18 00:03:05;;;;;;;1999.90;999.90;;;17.00;99.90;;;;;;5117532;27;20115;-76
2023/06/18 00:05:31;;;;;;;1999.90;999.90;;;17.00;99.90;;;;;;5135421;27;20058;-75
2023/06/18 00:07:57;;;;;;;1999.90;999.90;;;16.90;99.90;;;;;;5135283;27;20051;-76
2023/06/18 00:10:22;;;;;;;1999.90;999.90;;;16.90;99.90;;;;;;5135749;27;20367;-75
2023/06/18 00:12:48;;;;;;;1999.90;999.90;;;16.90;99.90;;;;;;5135459;27;20090;-76
2023/06/18 00:15:14;;;;;;;1999.90;999.90;;;16.90;99.90;;;;;;5117146;27;20055;-76
2023/06/18 00:17:40;;;;;;;1999.90;999.90;;;16.90;99.90;;;;;;5135342;27;20051;-76
2023/06/18 00:20:06;;;;;;;1999.90;999.90;;;16.90;99.90;;;;;;5116945;27;20483;-76
2023/06/18 00:22:36;;;;;;;1999.90;999.90;;;16.90;99.90;;;;;;5116811;27;20138;-76
2023/06/18 00:25:02;;;;;;;1999.90;999.90;;;16.80;99.90;;;;;;5117142;27;20050;-76
2023/06/18 00:27:28;;;;;;;1999.90;999.90;;;16.80;99.90;;;;;;5116408;27;20039;-77
2023/06/18 00:29:53;;;;;;;1999.90;999.90;;;16.70;99.90;;;;;;5135177;27;20122;-76
2023/06/18 00:32:19;;;;;;;1999.90;999.90;;;16.70;99.90;;;;;;5134998;27;20100;-76
2023/06/18 00:34:46;;;;;;;1999.90;999.90;;;16.70;99.90;;;;;;5135071;27;20039;-75
2023/06/18 00:37:12;;;;;;;1999.90;999.90;;;16.70;99.90;;;;;;5116486;27;20069;-76
2023/06/18 00:39:38;;;;;;;1999.90;999.90;;;16.70;99.90;;;;;;5100053;27;20092;-76
2023/06/18 00:42:10;;;;;;;1999.90;999.90;;;16.60;99.90;;;;;;5116662;27;20053;-76
2023/06/18 00:44:40;;;;;;;1999.90;999.90;;;16.60;99.90;;;;;;5135185;27;20069;-76
2023/06/18 00:47:13;;;;;;;1999.90;999.90;;;16.60;99.90;;;;;;5116709;27;20099;-75
2023/06/18 00:49:42;;;;;;;1999.90;999.90;;;16.60;99.90;;;;;;5134609;27;20043;-75
2023/06/18 00:52:14;;;;;;;1999.90;999.90;;;16.50;99.90;;;;;;5099643;27;20086;-76
2023/06/18 00:54:41;;;;;;;1999.90;999.90;;;16.50;99.90;;;;;;5134352;27;20126;-75
2023/06/18 00:57:13;;;;;;;1999.90;999.90;;;16.50;99.90;;;;;;5099755;27;20047;-76
2023/06/18 00:59:42;;;;;;;1999.90;999.90;;;16.50;99.90;;;;;;5100023;27;20035;-76
2023/06/18 01:02:08;;;;;;;1999.90;999.90;;;16.40;99.90;;;;;;5099417;27;20065;-76
2023/06/18 01:04:36;;;;;;;1999.90;999.90;;;16.50;99.90;;;;;;5116354;27;20082;-76
2023/06/18 01:07:03;;;;;;;1999.90;999.90;;;16.50;99.90;;;;;;5134567;27;20047;-76
2023/06/18 01:09:30;;;;;;;1999.90;999.90;;;16.40;99.90;;;;;;5116175;27;20051;-75
2023/06/18 01:11:57;;;;;;;1999.90;999.90;;;16.40;99.90;;;;;;5116073;28;20506;-75
2023/06/18 01:14:28;;;;;;;1999.90;999.90;;;16.40;99.90;;;;;;5116081;27;20043;-76
2023/06/18 01:16:57;;;;;;;1999.90;999.90;;;16.40;99.90;;;;;;5116059;28;20047;-75
2023/06/18 01:19:33;;;;;;;1999.90;999.90;;;16.30;99.90;;;;;;5116209;28;20051;-75
2023/06/18 01:22:11;;;;;;;1999.90;999.90;;;16.30;99.90;;;;;;5116440;28;20047;-76
2023/06/18 01:24:43;;;;;;;1999.90;999.90;;;16.30;99.90;;;;;;5116263;28;20055;-76
2023/06/18 01:27:12;;;;;;;1999.90;999.90;;;16.20;99.90;;;;;;5134341;28;20092;-76
2023/06/18 01:29:39;;;;;;;1999.90;999.90;;;16.30;99.90;;;;;;5134457;27;20296;-77
2023/06/18 01:32:05;;;;;;;1999.90;999.90;;;16.20;99.90;;;;;;5115992;28;20102;-75
2023/06/18 01:34:31;;;;;;;1999.90;999.90;;;16.20;99.90;;;;;;5099046;28;20082;-75
2023/06/18 01:37:14;;;;;;;1999.90;999.90;;;16.10;99.90;;;;;;5134067;28;20079;-75
2023/06/18 01:40:00;;;;;;;1999.90;999.90;;;16.10;99.90;;;;;;5101882;27;20220;-76
2023/06/18 01:42:29;;;;;;;1999.90;999.90;;;16.10;99.90;;;;;;5119514;27;20528;-75
2023/06/18 01:45:07;;;;;;;1999.90;999.90;;;16.10;99.90;;;;;;5103508;27;20086;-75
2023/06/18 01:47:33;;;;;;;1999.90;999.90;;;16.00;99.90;;;;;;5138194;27;20043;-76
2023/06/18 01:50:01;;;;;;;1999.90;999.90;;;16.00;99.90;;;;;;5086016;27;20051;-75
2023/06/18 01:52:31;;;;;;;1999.90;999.90;;;16.00;99.90;;;;;;5119884;27;20112;-76
2023/06/18 01:54:59;;;;;;;1999.90;999.90;;;16.00;99.90;;;;;;5119404;27;20051;-74
2023/06/18 01:57:27;;;;;;;1999.90;999.90;;;16.00;99.90;;;;;;5137096;27;20058;-75
2023/06/18 01:59:52;;;;;;;1999.90;999.90;;;15.90;99.90;;;;;;5119659;27;20043;-75
2023/06/18 02:02:18;;;;;;;1999.90;999.90;;;15.90;99.90;;;;;;5138034;27;20043;-77
2023/06/18 02:04:44;;;;;;;1999.90;999.90;;;15.90;99.90;;;;;;5085602;27;20051;-76
2023/06/18 02:07:13;;;;;;;1999.90;999.90;;;15.90;99.90;;;;;;5102801;27;20043;-76
2023/06/18 02:09:40;;;;;;;1999.90;999.90;;;15.80;99.90;;;;;;5138117;27;20054;-75
2023/06/18 02:12:06;;;;;;;1999.90;999.90;;;15.80;99.90;;;;;;5102646;27;20058;-76
2023/06/18 02:14:32;;;;;;;1999.90;999.90;;;15.80;99.90;;;;;;5119551;27;20136;-76
2023/06/18 02:16:59;;;;;;;1999.90;999.90;;;15.80;99.90;;;;;;5137384;27;20091;-77
2023/06/18 02:19:25;;;;;;;1999.90;999.90;;;15.80;99.90;;;;;;5119417;27;20191;-77
2023/06/18 02:21:52;;;;;;;1999.90;999.90;;;15.80;99.90;;;;;;5119436;27;20137;-76
2023/06/18 02:24:19;;;;;;;1999.90;999.90;;;15.80;99.90;;;;;;5137081;27;20043;-77
2023/06/18 02:26:45;;;;;;;1999.90;999.90;;;15.80;99.90;;;;;;5102357;27;20047;-77
2023/06/18 02:29:11;;;;;;;1999.90;999.90;;;15.80;99.90;;;;;;5102297;27;20380;-77
2023/06/18 02:31:37;;;;;;;1999.90;999.90;;;15.90;99.90;;;;;;5135157;27;20051;-77
2023/06/18 02:34:03;;;;;;;1999.90;999.90;;;15.90;99.90;;;;;;5102022;27;20047;-77
2023/06/18 02:36:29;;;;;;;1999.90;999.90;;;15.90;99.90;;;;;;5118994;27;20043;-77
2023/06/18 02:38:55;;;;;;;1999.90;999.90;;;15.30;99.90;;;;;;5085728;27;20089;-76
2023/06/18 02:41:21;;;;;;;1999.90;999.90;;;15.90;99.90;;;;;;5119095;27;20411;-76
2023/06/18 02:43:50;;;;;;;1999.90;999.90;;;15.90;99.90;;;;;;5102145;27;20130;-77
2023/06/18 02:46:17;;;;;;;1999.90;999.90;;;15.90;99.90;;;;;;5119274;27;20043;-77
2023/06/18 02:48:43;;;;;;;1999.90;999.90;;;15.90;99.90;;;;;;5119153;27;20475;-76
2023/06/18 02:51:09;;;;;;;1999.90;999.90;;;16.00;99.90;;;;;;5101579;27;20090;-76
2023/06/18 02:53:35;;;;;;;1999.90;999.90;;;16.00;99.90;;;;;;5118083;27;20502;-76
2023/06/18 02:56:01;;;;;;;1999.90;999.90;;;16.00;99.90;;;;;;5118709;27;20137;-76
2023/06/18 02:58:30;;;;;;;1999.90;999.90;;;16.00;99.90;;;;;;5118454;27;20600;-76
2023/06/18 03:01:00;;;;;;;1999.90;999.90;;;16.00;99.90;;;;;;5101725;27;20059;-75
2023/06/18 03:03:26;;;;;;;1999.90;999.90;;;16.10;99.90;;;;;;5136882;27;20103;-76
2023/06/18 03:05:52;;;;;;;1999.90;999.90;;;16.10;99.90;;;;;;5101437;27;20494;-77
2023/06/18 03:08:19;;;;;;;1999.90;999.90;;;16.10;99.90;;;;;;5136779;27;20050;-77
2023/06/18 03:10:45;;;;;;;1999.90;999.90;;;16.00;99.90;;;;;;5136686;27;20046;-77
2023/06/18 03:13:11;;;;;;;1999.90;999.90;;;16.00;99.90;;;;;;5118208;27;20517;-76
2023/06/18 03:15:37;;;;;;;1999.90;999.90;;;16.00;99.90;;;;;;5136328;27;20047;-77
2023/06/18 03:18:03;;;;;;;1999.90;999.90;;;16.00;99.90;;;;;;5114587;28;20553;-77
2023/06/18 03:20:29;;;;;;;1999.90;999.90;;;16.00;99.90;;;;;;5115903;28;20047;-77
2023/06/18 03:22:55;;;;;;;1999.90;999.90;;;16.00;99.90;;;;;;5097943;28;20073;-76
2023/06/18 03:25:21;;;;;;;1999.90;999.90;;;15.90;99.90;;;;;;5115296;28;20605;-77
2023/06/18 03:27:48;;;;;;;1999.90;999.90;;;15.90;99.90;;;;;;5114945;28;20048;-76
2023/06/18 03:30:14;;;;;;;1999.90;999.90;;;15.90;99.90;;;;;;5097633;28;20055;-76
2023/06/18 03:32:40;;;;;;;1999.90;999.90;;;15.80;99.90;;;;;;5115785;28;20407;-77
2023/06/18 03:35:06;;;;;;;1999.90;999.90;;;15.80;99.90;;;;;;5114354;28;20047;-77
2023/06/18 03:37:32;;;;;;;1999.90;999.90;;;15.80;99.90;;;;;;5114773;28;20474;-77
2023/06/18 03:39:58;;;;;;;1999.90;999.90;;;15.70;99.90;;;;;;5097621;28;20075;-76
2023/06/18 03:42:24;;;;;;;1999.90;999.90;;;15.70;99.90;;;;;;5098372;28;20090;-76
2023/06/18 03:44:50;;;;;;;1999.90;999.90;;;15.70;99.90;;;;;;5115621;28;20051;-76
2023/06/18 03:47:16;;;;;;;1999.90;999.90;;;15.70;99.90;;;;;;5115842;28;20041;-77
2023/06/18 03:49:42;;;;;;;1999.90;999.90;;;15.70;99.90;;;;;;5114168;28;20043;-77
2023/06/18 03:52:08;;;;;;;1999.90;999.90;;;15.70;99.90;;;;;;5114176;28;20501;-77
2023/06/18 03:54:35;;;;;;;1999.90;999.90;;;15.60;99.90;;;;;;5113777;28;20487;-77
2023/06/18 03:57:01;;;;;;;1999.90;999.90;;;15.70;99.90;;;;;;5113769;28;20044;-77
2023/06/18 03:59:27;;;;;;;1999.90;999.90;;;15.70;99.90;;;;;;5113671;28;20132;-77
2023/06/18 04:01:53;;;;;;;1999.90;999.90;;;15.80;99.90;;;;;;5096424;28;20581;-77
2023/06/18 04:04:19;;;;;;;1999.90;999.90;;;15.70;99.90;;;;;;5113997;28;20126;-77
2023/06/18 04:06:44;;;;;;;1999.90;999.90;;;15.70;99.90;;;;;;5096533;28;20050;-77
2023/06/18 04:09:10;;;;;;;1999.90;999.90;;;15.70;99.90;;;;;;5113951;28;20046;-77
2023/06/18 04:11:40;;;;;;;1999.90;999.90;;;15.80;99.90;;;;;;5114847;28;20419;-77
2023/06/18 04:14:08;;;;;;;1999.90;999.90;;;15.80;99.90;;;;;;5114750;28;20044;-77
2023/06/18 04:16:34;;;;;;;1999.90;999.90;;;15.80;99.90;;;;;;5080123;28;20066;-77
2023/06/18 04:19:00;;;;;;;1999.90;999.90;;;15.80;99.90;;;;;;5100744;27;20055;-78
2023/06/18 04:21:26;;;;;;;1999.90;999.90;;;15.80;99.90;;;;;;5121741;27;20069;-78
2023/06/18 04:23:53;;;;;;;1999.90;999.90;;;15.80;99.90;;;;;;5114063;28;20069;-78
2023/06/18 04:26:19;;;;;;;1999.90;999.90;;;15.90;99.90;;;;;;5114723;28;20046;-78
2023/06/18 04:28:45;;;;;;;1999.90;999.90;;;15.90;99.90;;;;;;5114465;28;20425;-78
2023/06/18 04:31:11;;;;;;;1999.90;999.90;;;15.90;99.90;;;;;;5079841;28;20436;-77
2023/06/18 04:33:36;;;;;;;1999.90;999.90;;;15.90;99.90;;;;;;5096626;28;20043;-76
2023/06/18 04:36:02;;;;;;;1999.90;999.90;;;15.90;99.90;;;;;;5114348;28;20407;-77
2023/06/18 04:38:28;;;;;;;1999.90;999.90;;;16.00;99.90;;;;;;5114677;28;20035;-77
2023/06/18 04:40:54;;;;;;;1999.90;999.90;;;16.00;99.90;;;;;;5096456;28;20040;-77
2023/06/18 04:43:20;;;;;;;1999.90;999.90;;;16.00;99.90;;;;;;5096710;28;20373;-78
2023/06/18 04:45:46;;;;;;;1999.90;999.90;;;16.00;99.90;;;;;;5096894;28;20054;-78
2023/06/18 04:48:14;;;;;;;1999.90;999.90;;;16.10;99.90;;;;;;5115953;28;20039;-77
2023/06/18 04:50:40;;;;;;;1999.90;999.90;;;16.10;99.90;;;;;;5115977;28;20396;-78
2023/06/18 04:53:06;;;;;;;1999.90;999.90;;;16.10;99.90;;;;;;5114307;28;20040;-77
2023/06/18 04:55:32;;;;;;;1999.90;999.90;;;16.10;99.90;;;;;;5096241;28;20052;-77
2023/06/18 04:57:58;;;;;;;1999.90;999.90;;;16.20;99.90;;;;;;5079233;28;20156;-77
2023/06/18 05:00:24;;;;;;;1999.90;999.90;;;16.20;99.90;;;;;;5114372;28;20039;-77
2023/06/18 05:02:49;;;;;;;1999.90;999.90;;;16.20;99.90;;;;;;5096230;28;20044;-79
2023/06/18 05:05:15;;;;;;;1999.90;999.90;;;16.20;99.90;;;;;;5114076;28;20090;-78
2023/06/18 05:07:42;;;;;;;1999.90;999.90;;;16.20;99.90;;;;;;5114068;28;20086;-78
2023/06/18 05:10:08;;;;;;;1999.90;999.90;;;16.30;99.90;;;;;;5114407;28;20402;-78
2023/06/18 05:12:34;;;;;;;1999.90;999.90;;;16.30;99.90;;;;;;5113565;28;20130;-78
2023/06/18 05:15:00;;;;;;;1999.90;999.90;;;16.40;99.90;;;;;;5096295;28;20201;-78
2023/06/18 05:17:26;;;;;;;1999.90;999.90;;;16.40;99.90;;;;;;5113782;28;20059;-78
2023/06/18 05:19:52;;;;;;;1999.90;999.90;;;16.40;99.90;;;;;;5114310;28;20044;-77
2023/06/18 05:22:17;;;;;;;1999.90;999.90;;;16.40;99.90;;;;;;5114078;28;20051;-78
2023/06/18 05:24:43;;;;;;;1999.90;999.90;;;16.50;99.90;;;;;;5095803;28;20083;-78
2023/06/18 05:27:09;;;;;;;1999.90;999.90;;;16.50;99.90;;;;;;5095932;28;20555;-77
2023/06/18 05:29:35;;;;;;;1999.90;999.90;;;16.50;99.90;;;;;;5114098;28;20043;-78
2023/06/18 05:32:00;;;;;;;1999.90;999.90;;;16.60;99.90;;;;;;5080036;28;20055;-77
2023/06/18 05:34:26;;;;;;;1999.90;999.90;;;16.60;99.90;;;;;;5079382;28;20479;-77
2023/06/18 05:36:52;;;;;;;1999.90;999.90;;;16.60;99.90;;;;;;5096003;28;20036;-77
2023/06/18 05:39:17;;;;;;;1999.90;999.90;;;16.70;99.90;;;;;;5116645;28;20054;-78
2023/06/18 05:41:43;;;;;;;1999.90;999.90;;;16.70;99.90;;;;;;5096181;28;20048;-77
2023/06/18 05:44:09;;;;;;;1999.90;999.90;;;16.70;99.90;;;;;;5114227;28;20172;-78
2023/06/18 05:46:34;;;;;;;1999.90;999.90;;;16.80;99.90;;;;;;5113776;28;20491;-77
2023/06/18 05:49:00;;;;;;;1999.90;999.90;;;16.80;99.90;;;;;;5096218;28;20051;-78
2023/06/18 05:51:26;;;;;;;1999.90;999.90;;;16.90;99.90;;;;;;5079476;28;20066;-77
2023/06/18 05:53:52;;;;;;;1999.90;999.90;;;16.90;99.90;;;;;;5114642;28;20040;-77
2023/06/18 05:56:17;;;;;;;1999.90;999.90;;;16.90;99.90;;;;;;5101033;28;20105;-77
2023/06/18 05:58:43;;;;;;;1999.90;999.90;;;17.00;99.90;;;;;;5116158;28;20506;-78
2023/06/18 06:01:09;;;;;;;1999.90;999.90;;;17.00;99.90;;;;;;5095941;28;20101;-78
2023/06/18 06:03:35;;;;;;;1999.90;999.90;;;17.00;99.90;;;;;;5095830;28;20503;-78
2023/06/18 06:06:02;;;;;;;1999.90;999.90;;;17.10;99.90;;;;;;5095632;28;20126;-78
2023/06/18 06:08:28;;;;;;;1999.90;999.90;;;17.10;99.90;;;;;;5078927;28;20126;-78
2023/06/18 06:10:54;;;;;;;1999.90;999.90;;;17.20;99.90;;;;;;5114155;28;20131;-77
2023/06/18 06:13:19;;;;;;;1999.90;999.90;;;17.20;99.90;;;;;;5113473;28;20144;-77
2023/06/18 06:15:45;;;;;;;1999.90;999.90;;;17.30;99.90;;;;;;5113371;28;20095;-78
2023/06/18 06:18:11;;;;;;;1999.90;999.90;;;16.30;99.90;;;;;;5095099;28;20055;-78
2023/06/18 06:20:37;;;;;;;1999.90;999.90;;;17.30;99.90;;;;;;5113583;28;20051;-78
2023/06/18 06:23:02;;;;;;;1999.90;999.90;;;17.40;99.90;;;;;;5095432;28;20201;-77
2023/06/18 06:25:28;;;;;;;1999.90;999.90;;;17.40;99.90;;;;;;5097326;28;20044;-78
2023/06/18 06:27:54;;;;;;;1999.90;999.90;;;17.50;99.90;;;;;;5117745;28;20043;-77
2023/06/18 06:30:20;;;;;;;1999.90;999.90;;;17.50;99.90;;;;;;5117334;28;20048;-78
2023/06/18 06:32:45;;;;;;;1999.90;999.90;;;17.60;99.90;;;;;;5117187;28;20039;-78
2023/06/18 06:35:11;;;;;;;1999.90;999.90;;;17.60;99.90;;;;;;5116982;28;20056;-77
2023/06/18 06:37:37;;;;;;;1999.90;999.90;;;17.60;99.90;;;;;;5118068;28;20544;-77
2023/06/18 06:40:04;;;;;;;1999.90;999.90;;;17.60;99.90;;;;;;5083316;28;20123;-77
2023/06/18 06:42:29;;;;;;;1999.90;999.90;;;17.70;99.90;;;;;;5082008;28;20499;-78
2023/06/18 06:44:55;;;;;;;1999.90;999.90;;;17.70;99.90;;;;;;5099995;28;20086;-78
2023/06/18 06:47:21;;;;;;;1999.90;999.90;;;17.80;99.90;;;;;;5121720;28;20039;-77
2023/06/18 06:49:47;;;;;;;1999.90;999.90;;;17.80;99.90;;;;;;5121213;28;20039;-78
2023/06/18 06:52:12;;;;;;;1999.90;999.90;;;17.90;99.90;;;;;;5119958;28;20055;-78
2023/06/18 06:54:38;;;;;;;1999.90;999.90;;;17.90;99.90;;;;;;5116044;28;20122;-78
2023/06/18 06:57:04;;;;;;;1999.90;999.90;;;17.90;99.90;;;;;;5117038;28;20082;-77
2023/06/18 06:59:30;;;;;;;1999.90;999.90;;;18.00;99.90;;;;;;5116756;28;20050;-77
2023/06/18 07:01:56;;;;;;;1999.90;999.90;;;18.00;99.90;;;;;;5121986;28;20052;-77
2023/06/18 07:04:22;;;;;;;1999.90;999.90;;;18.10;99.90;;;;;;5101252;28;20042;-78
2023/06/18 07:06:49;;;;;;;1999.90;999.90;;;18.10;99.90;;;;;;5116264;28;20050;-77
2023/06/18 07:09:14;;;;;;;1999.90;999.90;;;18.10;99.90;;;;;;5116144;28;20047;-78
2023/06/18 07:11:40;;;;;;;1999.90;999.90;;;18.20;99.90;;;;;;5116217;28;20130;-77
2023/06/18 07:14:07;;;;;;;1999.90;999.90;;;18.20;99.90;;;;;;5116116;28;20169;-77
2023/06/18 07:16:33;;;;;;;1999.90;999.90;;;18.20;99.90;;;;;;5097882;28;20116;-77
2023/06/18 07:18:58;;;;;;;1999.90;999.90;;;18.30;99.90;;;;;;5097542;28;20440;-77
2023/06/18 07:21:24;;;;;;;1999.90;999.90;;;18.30;99.90;;;;;;5097741;28;20044;-77
2023/06/18 07:23:50;;;;;;;1999.90;999.90;;;18.30;99.90;;;;;;5115553;28;20047;-77
2023/06/18 07:26:16;;;;;;;1999.90;999.90;;;18.40;99.90;;;;;;5098218;28;20062;-77
2023/06/18 07:28:41;;;;;;;1999.90;999.90;;;18.40;99.90;;;;;;5115839;28;20044;-77
2023/06/18 07:31:07;;;;;;;1999.90;999.90;;;18.50;99.90;;;;;;5098033;28;20039;-77
2023/06/18 07:33:33;;;;;;;1999.90;999.90;;;18.50;99.90;;;;;;5097865;28;20383;-77
2023/06/18 07:35:58;;;;;;;1999.90;999.90;;;18.70;99.90;;;;;;5115611;28;20047;-78
2023/06/18 07:38:24;;;;;;;1999.90;999.90;;;18.70;99.90;;;;;;5097282;28;20124;-77
2023/06/18 07:40:50;;;;;;;1999.90;999.90;;;18.70;99.90;;;;;;5080926;28;20387;-77
2023/06/18 07:43:16;;;;;;;1999.90;999.90;;;18.80;99.90;;;;;;5097636;28;20049;-78
2023/06/18 07:45:42;;;;;;;1999.90;999.90;;;18.90;99.90;;;;;;5115590;28;20090;-77
2023/06/18 07:48:07;;;;;;;1999.90;999.90;;;18.90;99.90;;;;;;5115642;28;20076;-78
2023/06/18 07:50:34;;;;;;;1999.90;999.90;;;19.00;99.90;;;;;;5116405;28;20398;-78
2023/06/18 07:52:59;;;;;;;1999.90;999.90;;;19.10;99.90;;;;;;5080050;28;20051;-79
2023/06/18 07:55:25;;;;;;;1999.90;999.90;;;19.10;99.90;;;;;;5114700;28;20069;-80
2023/06/18 07:57:51;;;;;;;1999.90;999.90;;;19.20;99.90;;;;;;5096474;28;20074;-80
2023/06/18 08:00:17;;;;;;;1999.90;999.90;;;19.30;99.90;;;;;;5080252;28;20058;-79
2023/06/18 08:02:43;;;;;;;1999.90;999.90;;;19.40;99.90;;;;;;5079712;28;20055;-77
2023/06/18 08:05:09;;;;;;;1999.90;999.90;;;19.50;99.90;;;;;;5096831;28;20058;-78
2023/06/18 08:07:35;;;;;;;1999.90;999.90;;;19.50;99.90;;;;;;5114836;28;20067;-78
2023/06/18 08:10:01;;;;;;;1999.90;999.90;;;19.60;99.90;;;;;;5114903;28;20087;-77
2023/06/18 08:12:27;;;;;;;1999.90;999.90;;;19.70;99.90;;;;;;5115644;28;20051;-78
2023/06/18 08:14:52;;;;;;;1999.90;999.90;;;19.80;99.90;;;;;;5097244;28;20471;-77
2023/06/18 08:17:18;;;;;;;1999.90;999.90;;;19.90;99.90;;;;;;5096694;28;20063;-78
2023/06/18 08:19:45;;;;;;;1999.90;999.90;;;20.00;99.90;;;;;;5114975;28;20043;-79
2023/06/18 08:22:17;;;;;;;1999.90;999.90;;;20.10;99.90;;;;;;5096717;28;20044;-79
2023/06/18 08:24:43;;;;;;;;;;;20.20;99.90;;;;;;5097071;28;20126;-78
2023/06/18 08:27:09;;;;;;;1999.90;999.90;;;20.30;99.90;;;;;;5097033;28;19977;-78
2023/06/18 08:29:35;;;;;;;1999.90;999.90;;;20.30;99.90;;;;;;5096644;28;20124;-79
2023/06/18 08:32:04;;;;;;;1999.90;999.90;;;20.40;99.90;;;;;;5096670;28;20051;-79
2023/06/18 08:34:42;;;;;;;1999.90;999.90;;;20.50;99.90;;;;;;5114557;28;20061;-79
2023/06/18 08:37:10;;;;;;;1999.90;999.90;;;20.60;99.90;;;;;;5096653;28;20047;-79
2023/06/18 08:39:36;;;;;;;1999.90;999.90;;;20.70;99.90;;;;;;5096667;28;20101;-78
2023/06/18 08:42:01;;;;;;;1999.90;999.90;;;20.80;99.90;;;;;;5096641;28;20059;-79
2023/06/18 08:44:29;;;;;;;1999.90;999.90;;;20.80;99.90;;;;;;5079512;28;20063;-79
2023/06/18 08:47:00;;;;;;;1999.90;999.90;;;21.00;99.90;;;;;;5112981;28;20046;-79
2023/06/18 08:49:29;;;;;;;1999.90;999.90;;;21.00;99.90;;;;;;5110953;28;20082;-78
2023/06/18 08:51:57;;;;;;;1999.90;999.90;;;21.10;99.90;;;;;;5114651;28;20449;-77
2023/06/18 08:54:32;;;;;;;1999.90;999.90;;;21.20;99.90;;;;;;5095993;28;20131;-75
2023/06/18 08:57:15;;;;;;;1999.90;999.90;;;21.20;99.90;;;;;;5114394;28;20039;-75
2023/06/18 08:59:42;;;;;;;1999.90;999.90;;;21.30;99.90;;;;;;5114245;28;20492;-74
2023/06/18 09:02:13;;;;;;;1999.90;999.90;;;21.40;99.90;;;;;;5114363;28;20093;-74
2023/06/18 09:04:39;;;;;;;1999.90;999.90;;;21.50;99.90;;;;;;5114291;28;20047;-75
2023/06/18 09:07:07;;;;;;;1999.90;999.90;;;21.50;99.90;;;;;;5114299;28;20036;-74
2023/06/18 09:09:32;;;;;;;1999.90;999.90;;;21.60;99.90;;;;;;5096134;28;20489;-74
2023/06/18 09:11:59;;;;;;;1999.90;999.90;;;21.70;99.90;;;;;;5079153;28;20130;-74
2023/06/18 09:14:25;;;;;;;1999.90;999.90;;;21.80;99.90;;;;;;5096115;28;20054;-75
2023/06/18 09:16:53;;;;;;;1999.90;999.90;;;21.80;99.90;;;;;;5113930;28;20043;-74
2023/06/18 09:19:19;;;;;;;1999.90;999.90;;;21.40;99.90;;;;;;5096448;28;20051;-74
2023/06/18 09:21:45;;;;;;;1999.90;999.90;;;22.00;99.90;;;;;;5114078;28;20044;-74
2023/06/18 09:24:22;;;;;;;1999.90;999.90;;;22.10;99.90;;;;;;5113758;28;20412;-75
2023/06/18 09:26:59;;;;;;;1999.90;999.90;;;22.20;99.90;;;;;;5114024;28;20043;-74
2023/06/18 09:29:28;;;;;;;1999.90;999.90;;;22.20;99.90;;;;;;5113986;28;20483;-74
2023/06/18 09:31:54;;;;;;;1999.90;999.90;;;22.20;99.90;;;;;;5096312;28;20086;-68
2023/06/18 09:34:20;;;;;;;1999.90;999.90;;;22.30;99.90;;;;;;5113758;28;20109;-66
2023/06/18 09:36:48;;;;;;;1999.90;999.90;;;22.40;99.90;;;;;;5113509;28;20083;-65
2023/06/18 09:39:33;;;;;;;1999.90;999.90;;;22.50;99.90;;;;;;5113759;28;20048;-65
2023/06/18 09:42:06;;;;;;;1999.90;999.90;;;22.60;99.90;;;;;;5095758;28;20051;-66
2023/06/18 09:44:33;;;;;;;1999.90;999.90;;;22.60;99.90;;;;;;5113810;28;20052;-65
2023/06/18 09:46:58;;;;;;;1999.90;999.90;;;22.70;99.90;;;;;;5113788;28;20118;-67
2023/06/18 09:49:26;;;;;;;1999.90;999.90;;;22.80;99.90;;;;;;5113928;28;20094;-70
2023/06/18 09:51:53;;;;;;;1999.90;999.90;;;22.80;99.90;;;;;;5098220;28;20044;-71
2023/06/18 09:54:20;;;;;;;1999.90;999.90;;;22.90;99.90;;;;;;5123355;27;20039;-72
2023/06/18 09:56:59;;;;;;;1999.90;999.90;;;23.00;99.90;;;;;;5105870;28;20102;-71
2023/06/18 09:59:26;;;;;;;1999.90;999.90;;;23.00;99.90;;;;;;5123748;27;20411;-72
2023/06/18 10:01:52;;;;;;;1999.90;999.90;;;23.00;99.90;;;;;;5126131;27;20031;-71
2023/06/18 10:04:18;;;;;;;1999.90;999.90;;;23.10;99.90;;;;;;5127552;27;20046;-71
2023/06/18 10:07:04;;;;;;;1999.90;999.90;;;23.20;99.90;;;;;;5109083;27;20511;-72
2023/06/18 10:09:39;;;;;;;1999.90;999.90;;;23.30;99.90;;;;;;5127983;27;20156;-72
2023/06/18 10:12:05;;;;;;;1999.90;999.90;;;23.30;99.90;;;;;;5109398;27;20045;-72
2023/06/18 10:14:32;;;;;;;1999.90;999.90;;;23.40;99.90;;;;;;5125853;27;20130;-71
2023/06/18 10:17:23;;;;;;;1999.90;999.90;;;23.40;99.90;;;;;;5108788;27;20066;-72
2023/06/18 10:20:06;;;;;;;1999.90;999.90;;;23.50;99.90;;;;;;5116109;27;20043;-72
2023/06/18 10:22:39;;;;;;;;;;;23.50;99.90;;;;;;5128463;27;20051;-73
2023/06/18 10:25:06;;;;;;;1999.90;999.90;;;23.60;99.90;;;;;;5109392;27;20028;-74
2023/06/18 10:27:34;;;;;;;1999.90;999.90;;;23.60;99.90;;;;;;5092676;27;20436;-73
2023/06/18 10:30:00;;;;;;;1999.90;999.90;;;23.70;99.90;;;;;;5127123;27;20065;-73
2023/06/18 10:32:28;;;;;;;1999.90;999.90;;;23.80;99.90;;;;;;5109025;27;20036;-74
2023/06/18 10:34:57;;;;;;;1999.90;999.90;;;23.90;99.90;;;;;;5122917;27;20081;-74
2023/06/18 10:37:25;;;;;;;1999.90;999.90;;;24.00;99.90;;;;;;5125613;27;20073;-74
2023/06/18 10:39:51;;;;;;;1999.90;999.90;;;24.00;99.90;;;;;;5123814;27;20071;-74
2023/06/18 10:42:19;;;;;;;1999.90;999.90;;;24.00;99.90;;;;;;5104487;28;20152;-73
2023/06/18 10:44:48;;;;;;;1999.90;999.90;;;24.10;99.90;;;;;;5126339;27;20043;-74
2023/06/18 10:47:18;;;;;;;1999.90;999.90;;;24.20;99.90;;;;;;5127318;27;20078;-74
2023/06/18 10:50:04;;;;;;;1999.90;999.90;;;24.20;99.90;;;;;;5121923;27;20047;-74
2023/06/18 10:52:35;;;;;;;1999.90;999.90;;;24.20;99.90;;;;;;5124769;27;20075;-73
2023/06/18 10:55:15;;;;;;;1999.90;999.90;;;24.20;99.90;;;;;;5122433;27;20047;-74
2023/06/18 10:57:48;;;;;;;1999.90;999.90;;;24.30;99.90;;;;;;5122943;27;20039;-74
2023/06/18 11:00:31;;;;;;;1999.90;999.90;;;24.40;99.90;;;;;;5102287;27;20044;-74
2023/06/18 11:03:02;;;;;;;1999.90;999.90;;;24.50;99.90;;;;;;5121577;27;20320;-74
2023/06/18 11:05:49;;;;;;;1999.90;999.90;;;24.50;99.90;;;;;;5121048;27;20054;-74
2023/06/18 11:08:17;;;;;;;1999.90;999.90;;;24.60;99.90;;;;;;5106244;27;20085;-74
2023/06/18 11:10:47;;;;;;;1999.90;999.90;;;24.60;99.90;;;;;;5120547;27;20148;-74
2023/06/18 11:13:14;;;;;;;1999.90;999.90;;;24.60;99.90;;;;;;5105296;27;20043;-74
2023/06/18 11:16:05;;;;;;;1999.90;999.90;;;24.70;99.90;;;;;;5116993;27;20564;-74
2023/06/18 11:18:31;;;;;;;1999.90;999.90;;;24.80;99.90;;;;;;5125817;27;20043;-74
2023/06/18 11:20:59;;;;;;;1999.90;999.90;;;24.80;99.90;;;;;;5124405;27;20039;-74
2023/06/18 11:23:26;;;;;;;1999.90;999.90;;;24.90;99.90;;;;;;5105776;27;20130;-72
2023/06/18 11:25:52;;;;;;;1999.90;999.90;;;24.90;99.90;;;;;;5124974;27;20047;-72
2023/06/18 11:28:19;;;;;;;1999.90;999.90;;;25.00;99.90;;;;;;5123568;27;20483;-72
2023/06/18 11:30:51;;;;;;;1999.90;999.90;;;25.00;99.90;;;;;;5124220;27;20043;-72
2023/06/18 11:33:25;;;;;;;1999.90;999.90;;;25.00;99.90;;;;;;5121843;27;20225;-72
2023/06/18 11:35:52;;;;;;;1999.90;999.90;;;25.00;99.90;;;;;;5107168;28;20043;-72
2023/06/18 11:38:19;;;;;;;1999.90;999.90;;;25.00;99.90;;;;;;5124925;27;20627;-72
2023/06/18 11:40:52;;;;;;;1999.90;999.90;;;25.00;99.90;;;;;;5124912;27;20047;-73
2023/06/18 11:43:19;;;;;;;1999.90;999.90;;;25.10;99.90;;;;;;5103512;27;20056;-72
2023/06/18 11:45:50;;;;;;;1999.90;999.90;;;25.10;99.90;;;;;;5123596;27;20512;-73
2023/06/18 11:48:16;;;;;;;1999.90;999.90;;;25.20;99.90;;;;;;5120753;27;20501;-72
2023/06/18 11:50:43;;;;;;;1999.90;999.90;;;25.30;99.90;;;;;;5124174;27;20482;-72
2023/06/18 11:53:12;;;;;;;1999.90;999.90;;;25.40;99.90;;;;;;5106775;27;20052;-72
2023/06/18 11:55:40;;;;;;;1999.90;999.90;;;25.50;99.90;;;;;;5124035;27;20035;-72
2023/06/18 11:58:06;;;;;;;1999.90;999.90;;;25.50;99.90;;;;;;5122202;27;20043;-72
2023/06/18 12:00:32;;;;;;;1999.90;999.90;;;25.50;99.90;;;;;;5113526;28;20074;-73
2023/06/18 12:03:01;;;;;;;1999.90;999.90;;;25.60;99.90;;;;;;5113886;28;20040;-75